Airfield :
LOGIN :

Register | Disclaimer

   EN    FR    IT 

 










Legend :    VFR   Marginal VFR   IFR   Intensive IFR   Very Intensive IFR
Visi :
Ceiling :
>= 8 km
>= 3000ft
5 to 8 km
1000 to 3000 ft
1500m to 5 km
500 to 1000 ft
800 to 1500m
200 to 500 ft
< 800m
< 200 ft
Symbols :   Thunderstorms  Fog  Heavy snow  Heavy precipitations  Wind > 20 kt
SIGMETs :     Misc.  Thunderstorms  Icing  Turbulence  Mountain Waves  Volcanic Ashes






- Airport Elevation : 1496 ft
- IATA code : SBZ


LRSB - Sibiu

CURRENT METAR :
  • 040800Z 27004KT 0700 R27/1000N FG BKN002 OVC005 00/00 Q1025

EXPIRED METARs :
  • 040730Z 28004KT 1000 R27/1500D BR BKN002 OVC005 00/M00 Q1025
  • 040700Z 27003KT 230V290 0900 R27/1500U FZFG BKN002 OVC005 M00/M00 Q1025
  • 040630Z 27004KT 0600 R27/1000U FZFG BKN002 OVC004 M00/M00 Q1025
  • 040600Z 26004KT 0600 R27/1000U FZFG SCT002 OVC004 M00/M00 Q1025
  • 040530Z 25003KT 0400 R27/0800N FG SCT002 OVC004 00/M00 Q1025

TAF TAF LRSB
Valid from the 04 at 06:00 until the 05 at 06:00 UTC


040500Z 0406/0506 09006KT 0600 FZFG BKN002
TEMPO 0406/0408 0150 FG VV001
BECMG 0408/0409 3000 BR BKN005
BECMG 0409/0410 9999 NSW SCT010
BECMG 0415/0417 3000 BR BKN010
BECMG 0417/0419 1500 BR BKN005
PROB40
TEMPO 0420/0505 0600 FG OVC002



MET'MAP, your aeronautical weather chart ! - Copyright ORBIFLY December 2007 - Disclaimer

ORBIFLY MET'MAP TEAM :

Programming & Development : Alexandra Zaïnal
Original concept : Baudouin d'Aumeries
Technical & hardware support : Manuel Goepfert
Assistance : Marc-Olivier Méhu




SOURCES & CREDITS :

   NOAA